Latest Weather Observations for Gladstone

IDQ60801

Issued at 7:35 am EST Saturday 20 September 2014 (issued every 30 minutes, with the page automatically refreshed every 10 minutes)

About weather observations | Map of weather stations | Latest weather observations for QLD | Other Formats
Station Details ID: 039123 Name: GLADSTONE RADAR Lat: -23.86 Lon: 151.26 Height: 74.5 m
Data from the previous 72 hours. | See also: Recent months at Gladstone
Date/Time
EST
Temp
°C
App
Temp
°C
Dew
Point
Rel
Hum
%
Delta-T
°C
Wind Press
QNH
hPa
Press
MSL
hPa
Rain
since 9 am
mm
Dir
 
Spd
km/h
Gust
km/h
Spd
kts
Gust
kts
20/07:30am 20.3 21.4 14.7 70 3.3 ENE 2 6 1 3 1020.1 1019.8 0.0
20/07:00am 18.9 20.2 14.2 74 2.7 S 0 0 0 0 1019.7 1019.4 0.0
20/06:30am 18.6 19.9 14.1 75 2.6 S 0 0 0 0 1019.1 1018.9 0.0
20/06:00am 18.3 18.8 14.0 76 2.5 S 4 7 2 4 1018.7 1018.5 0.0
20/05:30am 17.9 18.0 14.0 78 2.2 S 6 9 3 5 1018.4 1018.2 0.0
20/05:00am 17.7 17.7 13.6 77 2.3 SSW 6 9 3 5 1018.1 1017.9 0.0
20/04:30am 17.8 17.7 13.9 78 2.2 SSW 7 9 4 5 1017.8 1017.6 0.0
20/04:00am 17.8 17.7 13.9 78 2.2 SSW 7 9 4 5 1017.5 1017.3 0.0
20/03:30am 18.2 18.2 13.7 75 2.6 W 6 9 3 5 1017.5 1017.3 0.0
20/03:00am 18.6 18.6 14.1 75 2.6 NW 7 9 4 5 1017.4 1017.2 0.0
20/02:30am 19.2 18.9 13.4 69 3.3 N 7 11 4 6 1017.5 1017.3 0.0
20/02:00am 19.3 18.7 13.5 69 3.3 NNW 9 13 5 7 1017.8 1017.6 0.0
20/01:30am 19.4 19.0 14.0 71 3.1 NNW 9 13 5 7 1017.9 1017.7 0.0
20/01:00am 18.8 18.4 14.1 74 2.7 N 9 13 5 7 1017.9 1017.7 0.0
20/12:30am 18.8 18.5 14.3 75 2.6 NNE 9 15 5 8 1018.1 1017.9 0.0
20/12:00am 18.9 18.6 14.4 75 2.6 N 9 13 5 7 1018.6 1018.4 0.0
 
Date/Time
EST
Temp
°C
App
Temp
°C
Dew
Point
Rel
Hum
%
Delta-T
°C
Wind Press
QNH
hPa
Press
MSL
hPa
Rain
since 9 am
mm
Dir
 
Spd
km/h
Gust
km/h
Spd
kts
Gust
kts
19/11:30pm 19.0 18.7 14.3 74 2.7 N 9 15 5 8 1018.8 1018.6 0.0
19/11:00pm 19.2 19.2 14.2 73 2.9 N 7 13 4 7 1019.1 1018.9 0.0
19/10:30pm 19.4 19.1 14.4 73 2.9 N 9 15 5 8 1019.1 1018.9 0.0
19/10:00pm 19.4 19.2 14.6 74 2.8 N 9 17 5 9 1019.4 1019.1 0.0
19/09:30pm 19.4 19.4 15.1 76 2.5 N 9 13 5 7 1019.5 1019.2 0.0
19/09:00pm 19.8 19.6 14.8 73 2.9 N 9 15 5 8 1019.5 1019.2 0.0
19/08:30pm 19.8 19.3 14.8 73 2.9 NNE 11 17 6 9 1019.2 1019.0 0.0
19/08:00pm 20.0 19.5 14.8 72 3.0 NNE 11 19 6 10 1019.0 1018.8 0.0
19/07:30pm 20.0 19.2 15.0 73 2.9 NNE 13 20 7 11 1018.8 1018.6 0.0
19/07:00pm 20.0 19.1 14.8 72 3.0 NE 13 20 7 11 1018.4 1018.2 0.0
19/06:30pm 20.2 18.8 14.6 70 3.3 NE 15 20 8 11 1017.9 1017.7 0.0
19/06:00pm 20.5 19.4 14.4 68 3.6 NE 13 19 7 10 1017.6 1017.4 0.0
19/05:30pm 21.1 20.1 14.5 66 3.9 NE 13 22 7 12 1017.3 1017.1 0.0
19/05:00pm 21.6 20.2 14.5 64 4.2 NE 15 24 8 13 1017.0 1016.8 0.0
19/04:30pm 22.3 20.5 14.4 61 4.7 NE 17 28 9 15 1016.5 1016.3 0.0
19/04:00pm 23.3 21.4 15.1 60 4.9 NE 19 30 10 16 1016.4 1016.2 0.0
19/03:30pm 23.9 23.2 15.4 59 5.1 NE 13 26 7 14 1016.4 1016.2 0.0
19/03:00pm 24.6 22.3 14.7 54 5.9 NE 20 30 11 16 1016.4 1016.2 0.0
19/02:30pm 25.6 23.3 14.1 49 6.8 NE 19 30 10 16 1016.7 1016.5 0.0
19/02:00pm 26.1 24.6 15.2 51 6.6 NE 17 28 9 15 1016.9 1016.7 0.0
19/01:30pm 26.2 24.6 15.0 50 6.8 NE 17 28 9 15 1017.4 1017.2 0.0
19/01:00pm 26.8 24.7 15.2 49 7.0 NE 20 28 11 15 1017.6 1017.4 0.0
19/12:30pm 27.1 25.5 16.1 51 6.8 ENE 19 28 10 15 1018.3 1018.1 0.0
19/12:00pm 27.1 25.4 15.8 50 6.9 ENE 19 28 10 15 1019.1 1018.9 0.0
19/11:30am 26.9 25.5 16.5 53 6.5 ENE 19 24 10 13 1019.8 1019.5 0.0
19/11:00am 26.0 24.3 15.7 53 6.3 ENE 19 24 10 13 1020.2 1019.9 0.0
19/10:30am 26.4 25.6 16.0 52 6.4 ENE 15 20 8 11 1020.7 1020.4 0.0
19/10:00am 27.3 27.7 17.2 54 6.3 NE 11 19 6 10 1021.1 1020.8 0.0
19/09:30am 25.3 24.0 15.9 56 5.7 ENE 17 22 9 12 1021.3 1021.0 0.0
19/09:00am 24.6 24.8 15.8 58 5.3 E 9 15 5 8 1021.4 1021.1 0.0
19/08:30am 23.2 22.7 15.0 60 4.9 E 11 17 6 9 1021.4 1021.1 0.0
19/08:00am 21.3 22.1 14.9 67 3.8 E 4 7 2 4 1021.3 1021.0 0.0
19/07:30am 19.4 19.3 13.3 68 3.5 E 6 9 3 5 1021.0 1020.7 0.0
19/07:00am 17.9 17.8 13.2 74 2.6 SE 6 11 3 6 1020.6 1020.3 0.0
19/06:30am 17.2 17.9 13.5 79 2.1 SE 2 7 1 4 1020.2 1019.9 0.0
19/06:00am 16.7 16.4 13.2 80 2.0 SE 7 9 4 5 1019.8 1019.5 0.0
19/05:30am 17.1 16.4 13.2 78 2.2 SSE 9 13 5 7 1019.7 1019.4 0.0
19/05:00am 17.7 16.4 13.8 78 2.2 SSE 13 17 7 9 1019.4 1019.1 0.0
19/04:30am 17.5 16.2 13.6 78 2.2 S 13 17 7 9 1019.1 1018.9 0.0
19/04:00am 16.3 15.2 13.0 81 1.8 S 11 13 6 7 1018.8 1018.6 0.0
19/03:30am 16.6 15.6 12.2 75 2.4 S 9 11 5 6 1018.6 1018.4 0.0
19/03:00am 18.0 17.3 13.3 74 2.7 SSE 9 13 5 7 1018.5 1018.3 0.0
19/02:30am 18.2 17.2 13.5 74 2.7 SSE 11 13 6 7 1018.6 1018.4 0.0
19/02:00am 18.2 17.2 13.5 74 2.7 SSE 11 15 6 8 1018.7 1018.5 0.0
19/01:30am 18.3 17.3 13.4 73 2.8 SSE 11 15 6 8 1018.9 1018.7 0.0
19/01:00am 18.5 17.9 13.6 73 2.8 SSE 9 13 5 7 1019.0 1018.8 0.0
19/12:30am 18.1 17.8 13.2 73 2.8 S 7 9 4 5 1019.2 1019.0 0.0
19/12:00am 18.6 18.3 13.2 71 3.1 SSE 7 9 4 5 1019.4 1019.1 0.0
 
Date/Time
EST
Temp
°C
App
Temp
°C
Dew
Point
Rel
Hum
%
Delta-T
°C
Wind Press
QNH
hPa
Press
MSL
hPa
Rain
since 9 am
mm
Dir
 
Spd
km/h
Gust
km/h
Spd
kts
Gust
kts
18/11:30pm 18.5 17.8 13.1 71 3.1 SSE 9 9 5 5 1019.5 1019.2 0.0
18/11:00pm 18.2 17.5 13.1 72 2.9 S 9 11 5 6 1019.5 1019.2 0.0
18/10:30pm 19.1 18.6 13.9 72 3.0 SE 9 11 5 6 1019.5 1019.2 0.0
18/10:00pm 19.4 19.0 14.2 72 3.0 SE 9 11 5 6 1019.6 1019.3 0.0
18/09:30pm 19.3 18.9 14.1 72 3.0 ESE 9 9 5 5 1019.5 1019.2 0.0
18/09:00pm 19.6 19.2 14.0 70 3.2 ESE 9 11 5 6 1019.4 1019.1 0.0
18/08:30pm 19.9 19.0 13.8 68 3.5 E 11 15 6 8 1019.1 1018.9 0.0
18/08:00pm 19.7 18.7 13.4 67 3.6 E 11 13 6 7 1018.9 1018.7 0.0
18/07:30pm 19.6 19.0 13.5 68 3.5 E 9 11 5 6 1018.5 1018.3 0.0
18/07:00pm 19.6 18.4 12.8 65 3.8 ENE 11 13 6 7 1018.0 1017.8 0.0
18/06:30pm 19.9 18.4 11.9 60 4.5 NE 11 15 6 8 1017.7 1017.5 0.0
18/06:00pm 20.3 18.2 11.0 55 5.1 ENE 13 19 7 10 1017.3 1017.1 0.0
18/05:30pm 21.2 18.7 11.0 52 5.6 NE 15 20 8 11 1017.1 1016.9 0.0
18/05:00pm 21.8 19.5 10.6 49 6.1 NE 13 20 7 11 1016.7 1016.5 0.0
18/04:30pm 22.9 20.6 10.3 45 6.9 NE 13 24 7 13 1016.3 1016.1 0.0
18/04:00pm 24.0 20.6 9.2 39 8.0 ENE 17 24 9 13 1016.1 1015.9 0.0
18/03:30pm 24.7 21.0 9.4 38 8.4 ENE 19 26 10 14 1015.8 1015.6 0.0
18/03:00pm 25.3 20.8 10.0 38 8.5 ENE 24 32 13 17 1015.7 1015.4 0.0
18/02:30pm 25.6 20.9 7.7 32 9.5 ENE 22 35 12 19 1015.8 1015.6 0.0
18/02:00pm 26.5 22.3 9.8 35 9.3 ENE 22 32 12 17 1016.1 1015.9 0.0
18/01:30pm 27.0 22.6 8.9 32 9.9 NE 22 32 12 17 1016.5 1016.3 0.0
18/01:00pm 27.0 23.0 8.9 32 9.9 ENE 20 28 11 15 1017.0 1016.8 0.0
18/12:30pm 28.1 25.1 9.4 31 10.4 NE 15 28 8 15 1017.4 1017.2 0.0
18/12:00pm 28.2 23.6 5.7 24 11.7 NE 19 26 10 14 1017.8 1017.6 0.0
18/11:30am 27.8 23.5 5.4 24 11.6 NE 17 22 9 12 1018.2 1018.0 0.0
18/11:00am 27.8 24.0 6.0 25 11.4 NE 15 22 8 12 1018.8 1018.6 0.0
18/10:30am 26.9 22.6 5.2 25 11.2 NE 17 22 9 12 1019.4 1019.1 0.0
18/10:00am 26.8 23.1 6.2 27 10.7 ENE 15 24 8 13 1019.7 1019.4 0.0
18/09:30am 25.3 22.1 7.0 31 9.6 ENE 13 20 7 11 1019.9 1019.6 0.0
18/09:00am 24.7 21.7 7.8 34 9.0 E 13 20 7 11 1019.9 1019.6 0.0
18/08:30am 23.3 19.1 3.8 28 9.5 ESE 15 22 8 12 1019.8 1019.5 0.0
18/08:00am 22.1 18.0 4.6 32 8.6 SE 15 24 8 13 1019.5 1019.2 0.0
18/07:30am 19.9 17.2 5.5 39 7.1 S 9 17 5 9 1019.2 1019.0 0.0
18/07:00am 19.1 15.6 5.6 41 6.6 S 13 19 7 10 1018.7 1018.5 0.0
18/06:30am 18.7 15.4 6.2 44 6.2 S 13 19 7 10 1018.3 1018.1 0.0
18/06:00am 18.4 15.3 7.2 48 5.6 SSE 13 15 7 8 1017.7 1017.5 0.0
18/05:30am 17.5 14.4 8.9 57 4.5 S 15 17 8 9 1017.3 1017.1 0.0
18/05:00am 17.2 14.7 11.2 68 3.2 S 15 22 8 12 1016.8 1016.6 0.0
18/04:30am 17.0 15.4 12.7 76 2.4 S 13 19 7 10 1016.5 1016.3 0.0
18/04:00am 16.8 16.6 15.8 94 0.6 SW 11 17 6 9 1016.1 1015.9 0.0
18/03:30am 16.7 17.0 15.9 95 0.5 SW 9 13 5 7 1015.9 1015.7 0.0
18/03:00am 16.8 17.1 16.0 95 0.5 SW 9 17 5 9 1015.8 1015.6 0.0
18/02:30am 17.0 17.6 15.7 92 0.8 SW 7 9 4 5 1015.6 1015.3 0.0
18/02:00am 17.4 18.1 15.6 89 1.1 SW 6 9 3 5 1015.7 1015.4 0.0
18/01:30am 17.8 18.2 16.3 91 0.9 SSW 9 13 5 7 1015.9 1015.7 0.0
18/01:00am 18.2 19.6 17.4 95 0.5 WSW 6 7 3 4 1015.8 1015.6 0.0
18/12:30am 18.6 20.8 17.4 93 0.7 WNW 2 7 1 4 1015.8 1015.6 0.0
18/12:00am 19.1 20.5 17.9 93 0.7 NW 7 13 4 7 1015.9 1015.7 0.0
 
Date/Time
EST
Temp
°C
App
Temp
°C
Dew
Point
Rel
Hum
%
Delta-T
°C
Wind Press
QNH
hPa
Press
MSL
hPa
Rain
since 9 am
mm
Dir
 
Spd
km/h
Gust
km/h
Spd
kts
Gust
kts
17/11:30pm 18.7 20.0 17.2 91 0.9 WNW 6 9 3 5 1015.9 1015.7 0.0
17/11:00pm 18.8 20.4 16.9 89 1.1 WNW 4 9 2 5 1015.8 1015.6 0.0
17/10:30pm 19.2 21.5 16.8 86 1.5 CALM 0 6 0 3 1015.8 1015.6 0.0
17/10:00pm 19.9 20.2 16.9 83 1.8 WNW 11 17 6 9 1015.8 1015.6 0.0
17/09:30pm 20.2 20.5 16.0 77 2.5 NNW 9 11 5 6 1015.8 1015.6 0.0
17/09:00pm 20.2 20.5 16.0 77 2.5 NW 9 13 5 7 1015.6 1015.3 0.0
17/08:30pm 20.1 20.8 15.7 76 2.6 WNW 6 9 3 5 1015.6 1015.3 0.0
17/08:00pm 20.7 20.9 15.7 73 3.0 WNW 9 17 5 9 1015.4 1015.1 0.0
17/07:30pm 21.0 21.1 16.6 76 2.7 NNW 11 17 6 9 1014.8 1014.5 0.0
17/07:00pm 21.1 21.4 17.1 78 2.5 NNW 11 17 6 9 1014.5 1014.2 0.0
17/06:30pm 21.2 21.8 17.6 80 2.2 N 11 17 6 9 1014.3 1014.0 0.0
17/06:00pm 21.6 22.1 17.4 77 2.6 N 11 19 6 10 1013.8 1013.5 0.0
17/05:30pm 22.1 22.2 17.5 75 2.8 N 13 22 7 12 1013.4 1013.1 0.0
17/05:00pm 23.1 22.3 17.1 69 3.7 N 17 26 9 14 1013.1 1012.8 0.0
17/04:30pm 24.6 23.5 16.3 60 5.1 N 17 28 9 15 1012.6 1012.3 0.0
17/04:00pm 26.1 25.5 16.6 55 5.9 NNE 15 28 8 15 1012.5 1012.2 0.0
17/03:30pm 26.8 26.6 16.7 54 6.3 N 13 28 7 15 1012.5 1012.2 0.0
17/03:00pm 28.0 28.3 17.8 54 6.5 NNE 13 24 7 13 1012.7 1012.4 0.0
17/02:30pm 28.0 27.5 16.9 51 7.0 NNE 15 28 8 15 1012.8 1012.5 0.0
17/02:00pm 29.6 29.6 17.1 47 7.9 NE 13 24 7 13 1013.2 1012.9 0.0
17/01:30pm 30.4 30.6 15.7 41 9.1 NNE 9 19 5 10 1013.8 1013.5 0.0
17/01:00pm 30.1 28.8 12.5 34 10.4 N 11 24 6 13 1014.2 1013.9 0.0
17/12:30pm 28.3 26.4 13.0 39 9.0 NW 15 24 8 13 1014.8 1014.5 0.0
17/12:00pm 30.2 29.6 14.7 39 9.5 NNE 11 22 6 12 1015.3 1015.0 0.0
17/11:30am 27.0 24.1 11.1 37 9.0 NNW 17 28 9 15 1015.9 1015.7 0.0
17/11:00am 27.2 26.1 14.2 44 7.8 NNW 13 22 7 12 1016.3 1016.1 0.0
17/10:30am 26.3 25.6 14.4 48 7.1 NW 11 19 6 10 1016.9 1016.7 0.0
17/10:00am 24.7 24.3 15.1 55 5.8 NNW 11 24 6 13 1017.3 1017.1 0.0
17/09:30am 22.9 22.2 14.2 58 5.1 NW 11 20 6 11 1017.7 1017.5 0.0
17/09:00am 21.7 21.5 15.8 69 3.5 WNW 11 19 6 10 1018.0 1017.8 0.0
17/08:30am 21.0 21.1 15.5 71 3.3 W 9 19 5 10 1018.0 1017.8 0.0
17/08:00am 19.3 20.4 16.5 84 1.7 SW 6 13 3 7 1018.0 1017.8 0.0

Other Formats:

Comma delimited format used in spreadsheet applications
http://www.bom.gov.au/fwo/IDQ60801/IDQ60801.94380.axf

JavaScript Object Notation format (JSON) in row-major order
http://www.bom.gov.au/fwo/IDQ60801/IDQ60801.94380.json